createdAt,value
2023-03-29T00:01:35.287Z,7.395283824588205
2023-03-29T00:04:19.908Z,7.386292231950302
2023-03-29T00:07:16.444Z,7.376016127169805
2023-03-29T00:11:16.852Z,7.343903307234086
2023-03-29T00:14:16.549Z,7.281604468980004
2023-03-29T00:17:16.556Z,7.26362130713278
2023-03-29T00:21:16.500Z,7.163429470677874
2023-03-29T00:24:16.307Z,7.151868881285191
2023-03-29T00:27:16.665Z,7.042685609689579
2023-03-29T00:31:17.478Z,7.116544867269932
2023-03-29T00:34:16.370Z,7.0561729478898085
2023-03-29T00:37:16.856Z,7.021491225141017
2023-03-29T00:41:16.585Z,7.067091270758828
2023-03-29T00:45:15.533Z,7.065164507804093
2023-03-29T00:47:16.854Z,7.08122086701078
2023-03-29T00:51:18.989Z,7.020848971141095
2023-03-29T00:54:19.019Z,7.029198273494785
2023-03-29T00:57:19.279Z,6.968184158622535
2023-03-29T01:01:24.659Z,6.988736276943018
2023-03-29T01:04:24.454Z,7.029198273494785
2023-03-29T01:07:22.164Z,6.912308110478716
2023-03-29T01:11:19.752Z,6.861570119568205
2023-03-29T01:14:21.917Z,6.778077284910614
2023-03-29T01:17:16.821Z,6.772939266826507
2023-03-29T01:21:21.883Z,6.749175936973279
2023-03-29T01:24:39.013Z,6.769085753454419
2023-03-29T01:27:22.319Z,6.622652366623515
2023-03-29T01:31:20.652Z,6.640635401396139
2023-03-29T01:34:23.331Z,6.6271481249824316
2023-03-29T01:37:22.771Z,6.634212888568072
2023-03-29T01:41:16.003Z,6.631643883564175
2023-03-29T01:44:20.291Z,6.603384833323434
2023-03-29T01:47:22.290Z,6.573841290212295
2023-03-29T01:51:22.701Z,6.5731990393819615
2023-03-29T01:54:21.880Z,6.477503716480351
2023-03-29T01:57:18.065Z,6.437041966024208
2023-03-29T02:01:22.715Z,6.513469732037993
2023-03-29T02:04:21.920Z,6.477503716480351
2023-03-29T02:07:20.194Z,6.471723465310151
2023-03-29T02:11:16.400Z,6.519892236316809
2023-03-29T02:14:16.975Z,6.49099097064327
2023-03-29T02:17:18.949Z,6.510900730453796
2023-03-29T02:21:22.773Z,6.500624724844601
2023-03-29T02:24:18.963Z,6.482641717829756
2023-03-29T02:27:16.367Z,6.537233000141077
2023-03-29T02:31:23.835Z,6.554573767280454
2023-03-29T02:34:21.777Z,6.429977217795385
2023-03-29T02:37:19.968Z,6.390799987603623
2023-03-29T02:41:17.251Z,6.37923949668193
2023-03-29T02:44:20.709Z,6.316941320967453
2023-03-29T02:47:21.267Z,6.280975383335317
2023-03-29T02:51:20.228Z,6.361898763061982
2023-03-29T02:54:18.098Z,6.367679007233619
2023-03-29T02:57:17.086Z,6.27519514468886
2023-03-29T03:01:17.325Z,6.348411528093948
2023-03-29T03:04:17.728Z,6.27519514468886
2023-03-29T03:07:16.243Z,6.278406388335862
2023-03-29T03:11:16.939Z,6.2655614144299765
2023-03-29T03:14:16.838Z,6.17307765600417
2023-03-29T03:17:18.801Z,6.190418353526274
2023-03-29T03:21:16.537Z,6.1981253312668745
2023-03-29T03:24:18.109Z,6.176931144055925
2023-03-29T03:27:16.673Z,6.194914090462044
2023-03-29T03:31:17.581Z,6.231522242376468
2023-03-29T03:34:18.037Z,6.247578454017639
2023-03-29T03:37:16.877Z,6.252716442343081
2023-03-29T03:41:16.479Z,6.304738590529541
2023-03-29T03:44:17.375Z,6.276479642134018
2023-03-29T03:47:16.807Z,6.253358690904224
2023-03-29T03:51:16.348Z,6.261065673992652
2023-03-29T03:54:16.538Z,6.290609115231291
2023-03-29T03:57:16.597Z,6.246293956981754
2023-03-29T04:01:17.123Z,6.254000939469916
2023-03-29T04:04:16.670Z,6.240513720545368
2023-03-29T04:07:18.167Z,6.166012928334476
2023-03-29T04:11:15.976Z,6.190418353526274
2023-03-29T04:14:16.797Z,6.123624573871439
2023-03-29T04:17:16.117Z,6.079309497203576
2023-03-29T04:21:17.433Z,6.147387739842816
2023-03-29T04:24:16.527Z,6.146103244225742
2023-03-29T04:27:16.590Z,6.123624573871439
2023-03-29T04:31:17.053Z,6.075456013299117
2023-03-29T04:34:16.899Z,6.072887024120428
2023-03-29T04:37:22.048Z,6.034352195171232
2023-03-29T04:41:15.618Z,6.110137374332771
2023-03-29T04:44:16.448Z,6.072887024120428
2023-03-29T04:47:15.986Z,6.071602529558367
2023-03-29T04:51:15.721Z,6.102430404068218
2023-03-29T04:54:16.040Z,6.052977360452587
2023-03-29T04:57:17.233Z,6.0388479243717486
2023-03-29T05:01:17.210Z,6.022149502750199
2023-03-29T05:04:18.525Z,5.904618391377516
2023-03-29T05:07:18.267Z,5.933519470218107
2023-03-29T05:11:16.811Z,5.896269192537966
2023-03-29T05:14:16.996Z,5.903976145285651
2023-03-29T05:17:16.444Z,5.853880964130894
2023-03-29T05:21:16.790Z,5.958567079328714
2023-03-29T05:24:17.150Z,5.977192229048614
2023-03-29T05:27:17.377Z,5.993248395669798
2023-03-29T05:31:17.250Z,6.042701406720971
2023-03-29T05:34:16.670Z,5.990679408819415
2023-03-29T05:37:17.422Z,6.10692613664296
2023-03-29T05:41:16.570Z,6.122982326228884
2023-03-29T05:51:16.128Z,6.143534253046164
2023-03-29T05:54:16.626Z,6.184638120650561
2023-03-29T05:57:16.339Z,6.261065673992652
2023-03-29T06:01:18.050Z,6.317583569983344
2023-03-29T06:04:18.302Z,6.3580452671521925
2023-03-29T06:07:16.477Z,6.369605755372686
2023-03-29T06:11:16.701Z,6.392084486685872
2023-03-29T06:14:16.876Z,6.4331884669220925
2023-03-29T06:17:16.957Z,6.4897064701603995
2023-03-29T06:21:16.086Z,6.501909225482086
2023-03-29T06:24:16.514Z,6.528883743071129
2023-03-29T06:27:16.349Z,6.578979297018668
2023-03-29T06:31:16.376Z,6.675316978525734
2023-03-29T06:34:17.876Z,6.732477384584581
2023-03-29T06:37:16.405Z,6.8134011671173536
2023-03-29T06:41:16.172Z,6.9058855784148365
2023-03-29T06:51:16.369Z,7.161502705676776
2023-03-29T06:54:17.112Z,7.234719804490396
2023-03-29T06:57:16.803Z,7.3259201330359245
2023-03-29T07:01:16.297Z,7.439599544182419
2023-03-29T07:04:17.969Z,7.552636840031482
2023-03-29T07:07:20.717Z,7.653471364860979
2023-03-29T07:11:17.939Z,7.788988004717976
2023-03-29T07:14:17.848Z,7.887896011851626
2023-03-29T07:17:16.926Z,7.977812475560131
2023-03-29T07:21:16.631Z,8.149938526135884
2023-03-29T07:24:17.013Z,8.234717148711571
2023-03-29T07:27:18.441Z,8.35289354268789
2023-03-29T07:31:17.655Z,8.524378040352257
2023-03-29T07:34:17.870Z,8.648977466723682
2023-03-29T07:37:16.410Z,8.794771858174135
2023-03-29T07:41:16.100Z,8.979744815404775
2023-03-29T07:44:18.544Z,9.10049125484693
2023-03-29T07:47:16.777Z,9.229587359904054
2023-03-29T07:51:16.590Z,9.449243841501538
2023-03-29T07:54:16.685Z,9.590543613712452
2023-03-29T07:57:16.807Z,9.780656381786775
2023-03-29T08:01:18.789Z,9.999029647599036
2023-03-29T08:04:17.167Z,10.111427856981754
2023-03-29T08:07:19.398Z,10.243736784768771
2023-03-29T08:11:16.063Z,10.447338764202232
2023-03-29T08:14:16.509Z,10.562306645312129
2023-03-29T08:17:16.560Z,10.674063272752392
2023-03-29T08:21:16.221Z,10.793527406058638
2023-03-29T08:24:18.068Z,10.900146066492017
2023-03-29T08:27:16.358Z,11.045301793577163
2023-03-29T08:31:16.250Z,11.160270432518974
2023-03-29T08:34:16.379Z,11.2373444619946
2023-03-29T08:37:16.716Z,11.35552476770763
2023-03-29T08:41:30.617Z,11.447371524665504
2023-03-29T08:44:28.507Z,11.570048107331331
2023-03-29T08:47:22.128Z,11.62978074428538
2023-03-29T08:51:21.507Z,11.735758100190377
2023-03-29T08:54:20.508Z,11.801913724519546
2023-03-29T08:57:22.936Z,11.826320666066385
2023-03-29T09:01:16.201Z,11.954136072455821
2023-03-29T09:04:19.469Z,12.047910304234483
2023-03-29T09:07:16.685Z,12.060113807279048
2023-03-29T09:11:31.534Z,12.13076569927507
2023-03-29T09:14:36.967Z,12.262435281185116
2023-03-29T09:17:29.682Z,12.326664414880451
2023-03-29T09:21:21.801Z,12.414016109683962
2023-03-29T09:24:31.028Z,12.51999438174571
2023-03-29T09:27:39.814Z,12.597069566461505
2023-03-29T09:31:20.823Z,12.6574451735607
2023-03-29T09:34:22.525Z,12.814807317079339
2023-03-29T09:37:29.511Z,12.921428353121973
2023-03-29T09:41:24.267Z,13.007496027837714
2023-03-29T09:44:30.253Z,13.11861337043265
2023-03-29T09:47:21.034Z,13.186054598493593
2023-03-29T09:51:18.959Z,13.324790996727916
2023-03-29T09:54:16.577Z,13.383882490034102
2023-03-29T09:57:17.918Z,13.478942799159359
2023-03-29T10:01:17.863Z,13.615110442519017
2023-03-29T10:04:17.050Z,13.663283006800702
2023-03-29T10:07:18.953Z,13.784035680356101
2023-03-29T10:11:21.590Z,13.886804039770869
2023-03-29T10:14:19.853Z,13.97993796604651
2023-03-29T10:17:20.698Z,13.993426335709227
2023-03-29T10:21:18.062Z,14.125740925391801
2023-03-29T10:24:20.131Z,14.2330058072047
2023-03-29T10:27:20.130Z,14.370459194435625
2023-03-29T10:31:19.320Z,14.446251338152887
2023-03-29T10:34:19.130Z,14.556728135629328
2023-03-29T10:37:20.649Z,14.686474313744203
2023-03-29T10:41:19.195Z,14.8431976674191
2023-03-29T10:44:34.687Z,14.985790462132808
2023-03-29T10:47:19.084Z,15.13801815248189
2023-03-29T10:51:17.693Z,15.25106504139003
2023-03-29T10:54:20.460Z,15.276115223338365
2023-03-29T10:57:29.492Z,15.51184419738711
2023-03-29T11:01:23.303Z,15.502851800219286
2023-03-29T11:04:25.270Z,15.55102536687782
2023-03-29T11:07:27.660Z,15.687838435668164
2023-03-29T11:11:31.970Z,15.736012100552125
2023-03-29T11:14:29.299Z,15.737939047679538
2023-03-29T11:17:29.290Z,15.850344367605521
2023-03-29T11:21:26.369Z,15.829790241557294
2023-03-29T11:24:53.882Z,15.947334212725764
2023-03-29T11:27:28.618Z,16.0321201225368
2023-03-29T11:31:27.650Z,16.02955085137837
2023-03-29T11:34:30.566Z,16.01349290828666
2023-03-29T11:37:23.038Z,16.090571061047466
2023-03-29T11:41:21.759Z,16.23509277397279
2023-03-29T11:44:21.518Z,16.32822911095509
2023-03-29T11:47:19.477Z,16.425861787540725
2023-03-29T11:51:22.127Z,16.54212188815145
2023-03-29T11:54:21.573Z,16.606996373694802
2023-03-29T11:57:22.838Z,16.711694898702262
2023-03-29T12:01:22.584Z,16.76565001397976
2023-03-29T12:04:24.005Z,16.686644320373397
2023-03-29T12:07:25.238Z,16.72903761082789
2023-03-29T12:11:23.046Z,16.833736276670606
2023-03-29T12:14:23.428Z,16.972478253126972
2023-03-29T12:17:22.563Z,17.05212652065711
2023-03-29T12:21:20.558Z,17.15297160485652
2023-03-29T12:24:18.965Z,17.154256256333703
2023-03-29T12:27:26.957Z,17.247393536894016
2023-03-29T12:31:25.376Z,17.279509862704437
2023-03-29T12:34:28.578Z,17.420179503702183
2023-03-29T12:41:18.564Z,17.46000382524153
2023-03-29T12:51:19.527Z,17.5698419639506
2023-03-29T12:54:20.456Z,17.54800279127703
2023-03-29T12:57:20.834Z,17.62572457678625
2023-03-29T13:01:27.754Z,17.672614611814787
2023-03-29T13:04:20.201Z,17.64306746363036
2023-03-29T13:07:29.772Z,17.641140476039528
2023-03-29T13:11:26.662Z,17.704088758508533
2023-03-29T13:14:20.862Z,17.65334473147268
2023-03-29T13:17:25.113Z,17.6456367804818
2023-03-29T13:21:23.639Z,17.693169155357463
2023-03-29T13:24:40.123Z,17.69895012156785
2023-03-29T13:27:27.903Z,17.82035049707374
2023-03-29T13:31:33.079Z,17.94496269166848
2023-03-29T13:34:31.173Z,17.989925896685236
2023-03-29T13:37:33.123Z,18.032962128071905
2023-03-29T13:41:32.476Z,18.08691802909825
2023-03-29T13:44:25.285Z,18.149224288060577
2023-03-29T13:48:05.373Z,18.30595362350032
2023-03-29T13:51:31.210Z,18.354771012787022
2023-03-29T13:54:26.281Z,18.43185115461274
2023-03-29T13:57:20.622Z,18.551325503854606
2023-03-29T14:01:24.516Z,18.55196783949077
2023-03-29T14:04:22.669Z,18.60720872121319
2023-03-29T14:07:20.819Z,18.663734309419034
2023-03-29T14:11:22.285Z,18.751734442963787
2023-03-29T14:14:21.735Z,18.72025993284051
2023-03-29T14:17:20.238Z,18.758157813718206
2023-03-29T14:21:19.087Z,18.73117965960555
2023-03-29T14:24:20.897Z,18.77871260318825
2023-03-29T14:27:18.028Z,18.608493393281332
2023-03-29T14:31:18.582Z,18.688143097030935
2023-03-29T14:34:18.100Z,18.8615741454626
2023-03-29T14:37:22.801Z,18.77614325424984
2023-03-29T14:41:16.656Z,18.563529881719386
2023-03-29T14:44:19.283Z,18.64317954599692
2023-03-29T14:47:24.041Z,18.65152991807554
2023-03-29T14:51:16.581Z,18.616201426072166
2023-03-29T14:54:19.907Z,18.598216017245523
2023-03-29T14:57:22.986Z,18.563529881719386
2023-03-29T15:01:19.261Z,18.52948609493069
2023-03-29T15:04:17.009Z,18.577018932848297
2023-03-29T15:07:21.448Z,18.557748860420908
2023-03-29T15:11:18.716Z,18.547471490133102
2023-03-29T15:14:18.868Z,18.49094597435942
2023-03-29T15:17:36.006Z,18.421573798585815
2023-03-29T15:21:20.902Z,18.364406026934102
2023-03-29T15:24:22.475Z,18.361194355438055
2023-03-29T15:27:19.027Z,18.355413347031664
2023-03-29T15:31:18.956Z,18.29696094939136
2023-03-29T15:34:25.762Z,18.212172923040633
2023-03-29T15:37:17.371Z,18.11389599164404
2023-03-29T15:41:17.020Z,17.95331299948675
2023-03-29T15:44:25.282Z,17.868525294278605
2023-03-29T15:47:18.549Z,17.83962041288614
2023-03-29T15:51:16.915Z,17.773460385693124
2023-03-29T15:54:16.554Z,17.797226603501258
2023-03-29T15:57:17.733Z,17.796584273208374
2023-03-29T16:01:25.461Z,17.750336504071402
2023-03-29T16:04:20.485Z,17.696380803206647
2023-03-29T16:07:19.202Z,17.623797589563765
2023-03-29T16:11:16.524Z,17.611593338105102
2023-03-29T16:14:20.123Z,17.65398706075148
2023-03-29T16:17:17.235Z,17.660410353789576
2023-03-29T16:21:18.758Z,17.613520325068386
2023-03-29T16:24:20.209Z,17.610308680152322
2023-03-29T16:27:18.399Z,17.64306746363036
2023-03-29T16:31:16.353Z,17.63022088046455
2023-03-29T16:34:25.051Z,17.558280048350934
2023-03-29T16:37:18.154Z,17.54029484923558
2023-03-29T16:41:18.120Z,17.477989008440726
2023-03-29T16:44:22.995Z,17.393201747429792
2023-03-29T16:47:17.984Z,17.241612599455493
2023-03-29T16:51:18.316Z,17.163248817183284
2023-03-29T16:54:17.478Z,17.088096728912568
2023-03-29T16:57:16.655Z,17.05469582077385
2023-03-29T17:01:16.987Z,16.931369497243214
2023-03-29T17:04:18.778Z,16.79519687641914
2023-03-29T17:07:17.194Z,16.772073244126297
2023-03-29T17:11:16.909Z,16.67700948439633
2023-03-29T17:14:19.720Z,16.63590086239019
2023-03-29T17:17:16.764Z,16.522209926645246
2023-03-29T17:21:16.144Z,16.411730735742548
2023-03-29T17:24:16.137Z,16.398242006533838
2023-03-29T17:27:16.063Z,16.334009990195046
2023-03-29T17:31:17.348Z,16.166364641784547
2023-03-29T17:34:17.993Z,16.101490471317447
2023-03-29T17:37:17.795Z,16.04560879731225
2023-03-29T17:41:16.673Z,15.995508015398173
2023-03-29T17:44:16.595Z,15.861263748962665
2023-03-29T17:47:16.517Z,15.848417418090685
2023-03-29T17:51:16.308Z,15.690407697149567
2023-03-29T17:54:16.627Z,15.650584152364171
2023-03-29T17:57:16.547Z,15.62553386701993
2023-03-29T18:01:19.643Z,15.585068036074881
2023-03-29T18:04:17.314Z,15.496428659930825
2023-03-29T18:07:18.067Z,15.420635638869499
2023-03-29T18:11:19.484Z,15.433481909169132
2023-03-29T18:14:16.930Z,15.373746767712237
2023-03-29T18:17:17.014Z,15.312727040166283
2023-03-29T18:21:17.382Z,15.272261348742267
2023-03-29T18:24:17.072Z,15.214453249445887
2023-03-29T18:27:17.390Z,15.158572121805992
2023-03-29T18:31:16.863Z,15.120033433143181
2023-03-29T18:34:17.229Z,15.03460606497183
2023-03-29T18:37:17.804Z,14.973586565527148
2023-03-29T18:41:16.363Z,14.912567107123413
2023-03-29T18:44:16.596Z,14.877240071016422
2023-03-29T18:47:18.254Z,14.808512967457592
2023-03-29T18:51:16.758Z,14.77125904523209
2023-03-29T18:54:17.293Z,14.6884012385799
2023-03-29T18:57:17.371Z,14.626097356290938
2023-03-29T19:01:16.775Z,14.643439669744112
2023-03-29T19:04:16.732Z,14.531678152314635
2023-03-29T19:07:18.000Z,14.47836667238671
2023-03-29T19:11:17.144Z,14.480293592802264
2023-03-29T19:14:19.320Z,14.418632159804474
2023-03-29T19:17:18.719Z,14.355043850919992
2023-03-29T19:21:17.413Z,14.36146691039985
2023-03-29T19:24:19.273Z,14.248421129983853
2023-03-29T19:27:19.165Z,14.169417628427983
2023-03-29T19:31:16.646Z,14.160425364319234
2023-03-29T19:34:22.047Z,14.074998899739967
2023-03-29T19:37:19.935Z,14.046737530669725
2023-03-29T19:41:17.715Z,13.954245838903535
2023-03-29T19:44:18.036Z,13.854046612567709
2023-03-29T19:47:17.391Z,13.786604887922659
2023-03-29T19:51:18.692Z,13.769262738260386
2023-03-29T19:54:18.166Z,13.723017022034856
2023-03-29T19:57:19.114Z,13.602264429697334
2023-03-29T20:01:22.462Z,13.529684491426815
2023-03-29T20:04:17.520Z,13.444900920254076
2023-03-29T20:07:16.788Z,13.410216754884459
2023-03-29T20:11:17.675Z,13.360117428316517
2023-03-29T20:14:17.669Z,13.21303110375602
2023-03-29T20:17:17.806Z,13.157793506346298
2023-03-29T20:21:17.422Z,13.03190329373765
2023-03-29T20:24:17.512Z,12.936843453038545
2023-03-29T20:27:17.716Z,12.872613887333227
2023-03-29T20:31:16.754Z,12.820587972447175
2023-03-29T20:34:19.050Z,12.67928316900252
2023-03-29T20:37:16.729Z,12.665152700763429
2023-03-29T20:41:17.147Z,12.442276970128386
2023-03-29T20:44:17.510Z,12.434569461861338
2023-03-29T20:47:17.200Z,12.374836294994747
2023-03-29T21:01:16.299Z,12.202702227659756
2023-03-29T21:04:17.081Z,12.029283908015714
2023-03-29T21:07:18.845Z,11.909175858721664
2023-03-29T21:11:16.879Z,11.900826107195826
2023-03-29T21:14:19.889Z,11.785214241981521
2023-03-29T21:17:16.866Z,11.678594541322672
2023-03-29T21:21:16.886Z,11.626569311190632
2023-03-29T21:24:17.548Z,11.52894179937075
2023-03-29T21:27:17.313Z,11.542429804617132
2023-03-29T21:31:17.334Z,11.425533825773527
2023-03-29T21:34:17.344Z,11.307995713206129
2023-03-29T21:37:17.449Z,11.268174092120262
2023-03-29T21:41:17.800Z,11.237986745848684
2023-03-29T21:44:17.343Z,11.142286501730359
2023-03-29T21:47:17.506Z,11.139717369051596
2023-03-29T21:51:17.000Z,11.232848475143328
2023-03-29T21:54:17.357Z,11.142928784911419
2023-03-29T21:57:17.450Z,10.995203773025423
2023-03-29T22:01:18.260Z,10.939967526024338
2023-03-29T22:04:29.218Z,10.90721116287541
2023-03-29T22:07:17.593Z,10.917487667688055
2023-03-29T22:11:16.852Z,10.852617250578259
2023-03-29T22:14:16.975Z,10.765267059242252
2023-03-29T22:17:16.798Z,10.79995021338109
2023-03-29T22:21:18.856Z,10.731226198629974
2023-03-29T22:24:17.013Z,10.711957792624252
2023-03-29T22:27:17.102Z,10.751779169547172
2023-03-29T22:31:18.852Z,10.704250431367928
2023-03-29T22:34:17.086Z,10.645160683491213
2023-03-29T22:37:18.282Z,10.580290461122422
2023-03-29T22:41:17.793Z,10.623965457218947
2023-03-29T22:44:16.952Z,10.612404426794091
2023-03-29T22:47:16.850Z,10.623965457218947
2023-03-29T22:51:16.671Z,10.68690887093544
2023-03-29T22:54:17.139Z,10.707461831811816
2023-03-29T22:57:17.073Z,10.747925487145494
2023-03-29T23:01:16.259Z,10.742787244197917
2023-03-29T23:04:17.562Z,10.667640474342988
2023-03-29T23:07:17.058Z,10.675990112363888
2023-03-29T23:11:16.652Z,10.75434829123924
2023-03-29T23:14:16.719Z,10.728014797344803
2023-03-29T23:17:19.661Z,10.686266590983086
2023-03-29T23:21:16.600Z,10.666355914715677
2023-03-29T23:24:19.017Z,10.686266590983086
2023-03-29T23:27:17.164Z,10.620754059730917
2023-03-29T23:31:18.889Z,10.585428694865914
2023-03-29T23:34:16.584Z,10.546891948883786
2023-03-29T23:37:16.418Z,10.546249669922782
2023-03-29T23:41:17.493Z,10.537900043843546
2023-03-29T23:44:17.310Z,10.49165597485844
2023-03-29T23:47:17.089Z,10.484590910839415
2023-03-29T23:51:19.481Z,10.382468683296247
2023-03-29T23:54:17.897Z,10.406875242946262
2023-03-29T23:57:16.942Z,10.314387262136734
